Time;durP1;ratioP1;P1;durP2;ratioP2;P2;SDS_P1;SDS_P2;PMS_P1;PMS_P2;Temp;Humidity;BMP_temperature;BMP_pressure;BME280_temperature;BME280_humidity;BME280_pressure;Samples;Min_cycle;Max_cycle;Signal;HPM_P1;HPM_P2
2022/06/01 00:01:49;;;;;;;2.03;1.63;;;14.10;99.90;;;;;;5011945;28;20030;-85
2022/06/01 00:04:16;;;;;;;2.55;1.45;;;14.10;99.90;;;;;;5010343;28;20108;-85
2022/06/01 00:06:42;;;;;;;1.98;1.20;;;14.10;99.90;;;;;;5013605;28;20397;-85
2022/06/01 00:09:07;;;;;;;2.78;1.58;;;14.10;99.90;;;;;;5010686;28;20048;-85
2022/06/01 00:11:33;;;;;;;4.78;1.05;;;14.20;99.90;;;;;;5014440;28;20025;-85
2022/06/01 00:13:59;;;;;;;3.20;1.67;;;14.20;99.90;;;;;;5015356;28;20495;-85
2022/06/01 00:16:24;;;;;;;8.75;1.73;;;14.20;99.90;;;;;;5015752;28;20068;-85
2022/06/01 00:18:50;;;;;;;4.93;1.27;;;14.10;99.90;;;;;;5014206;28;20192;-85
2022/06/01 00:21:16;;;;;;;1.55;1.45;;;14.10;99.90;;;;;;5010163;28;20509;-84
2022/06/01 00:23:41;;;;;;;1.35;1.17;;;14.10;99.90;;;;;;5008176;28;20389;-85
2022/06/01 00:26:07;;;;;;;1.05;0.95;;;14.10;99.90;;;;;;5010286;28;20257;-84
2022/06/01 00:28:33;;;;;;;1.20;1.10;;;14.10;99.90;;;;;;5016210;28;20080;-85
2022/06/01 00:30:59;;;;;;;1.48;1.20;;;14.10;99.90;;;;;;5015594;28;20030;-85
2022/06/01 00:33:25;;;;;;;3.53;1.08;;;14.10;99.90;;;;;;5015092;28;20034;-84
2022/06/01 00:35:50;;;;;;;1.27;1.17;;;14.10;99.90;;;;;;5024059;28;20025;-85
2022/06/01 00:38:16;;;;;;;1.58;1.30;;;14.10;99.90;;;;;;5019913;28;20044;-85
2022/06/01 00:40:42;;;;;;;2.10;1.63;;;14.10;99.90;;;;;;5017833;28;20386;-85
2022/06/01 00:43:38;;;;;;;1.83;1.17;;;14.10;99.90;;;;;;5012002;28;20088;-85
2022/06/01 00:46:04;;;;;;;2.15;1.33;;;14.10;99.90;;;;;;5015795;28;20049;-85
2022/06/01 00:48:31;;;;;;;1.25;1.05;;;14.10;99.90;;;;;;5020772;28;20492;-85
2022/06/01 00:50:57;;;;;;;1.20;1.10;;;14.00;99.90;;;;;;5013697;28;20030;-85
2022/06/01 00:53:27;;;;;;;3.00;1.98;;;14.10;99.90;;;;;;5016629;28;20028;-86
2022/06/01 00:55:59;;;;;;;2.20;1.55;;;14.10;99.90;;;;;;5014947;28;20133;-85
2022/06/01 00:58:38;;;;;;;1.88;1.50;;;14.10;99.90;;;;;;5018695;28;20087;-88
2022/06/01 01:01:08;;;;;;;1.70;1.50;;;14.10;99.90;;;;;;5014453;28;20488;-85
2022/06/01 01:03:36;;;;;;;1.83;1.52;;;14.00;99.90;;;;;;5013490;28;20044;-86
2022/06/01 01:06:11;;;;;;;3.22;1.60;;;14.00;99.90;;;;;;5013250;28;20029;-86
2022/06/01 01:08:38;;;;;;;1.20;1.02;;;13.90;99.90;;;;;;5017338;28;20116;-85
2022/06/01 01:11:07;;;;;;;2.20;1.25;;;14.00;99.90;;;;;;5019265;28;20034;-85
2022/06/01 01:13:32;;;;;;;1.40;1.30;;;14.00;99.90;;;;;;5021392;28;20042;-85
2022/06/01 01:15:59;;;;;;;3.70;1.75;;;14.00;99.90;;;;;;5012860;28;20044;-86
2022/06/01 01:18:32;;;;;;;2.42;1.52;;;14.00;99.90;;;;;;5012780;28;20419;-85
2022/06/01 01:21:36;;;;;;;2.58;1.83;;;14.00;99.90;;;;;;5013396;28;20026;-84
2022/06/01 01:24:09;;;;;;;1.38;1.20;;;13.90;99.90;;;;;;5017660;28;20038;-85
2022/06/01 01:26:36;;;;;;;1.63;1.52;;;13.90;99.90;;;;;;5011285;28;20038;-84
2022/06/01 01:29:09;;;;;;;2.83;1.27;;;13.90;99.90;;;;;;5012776;28;20135;-85
2022/06/01 01:31:36;;;;;;;1.60;1.02;;;13.80;99.90;;;;;;5013523;28;20095;-84
2022/06/01 01:34:01;;;;;;;1.38;1.27;;;13.70;99.90;;;;;;5013776;28;20034;-85
2022/06/01 01:36:33;;;;;;;1.30;0.77;;;13.70;99.90;;;;;;5017564;28;20036;-85
2022/06/01 01:39:12;;;;;;;1.75;1.35;;;13.60;99.90;;;;;;5017114;28;20108;-84
2022/06/01 01:41:57;;;;;;;2.25;1.38;;;13.70;99.90;;;;;;5019958;28;20105;-86
2022/06/01 01:44:49;;;;;;;2.03;1.60;;;13.70;99.90;;;;;;5013049;28;20033;-84
2022/06/01 01:47:14;;;;;;;;;;;13.70;99.90;;;;;;5011275;28;20034;-85
2022/06/01 01:49:41;;;;;;;2.50;1.65;;;13.70;99.90;;;;;;5010326;28;19916;-85
2022/06/01 01:52:13;;;;;;;1.45;1.00;;;13.70;99.90;;;;;;5010972;28;20084;-85
2022/06/01 01:55:07;;;;;;;1.08;0.95;;;13.70;99.90;;;;;;5017217;28;20084;-84
2022/06/01 01:57:47;;;;;;;1.27;1.05;;;13.70;99.90;;;;;;5012751;28;21822;-84
2022/06/01 02:00:17;;;;;;;1.63;1.20;;;13.80;99.90;;;;;;5008076;28;20030;-85
2022/06/01 02:03:00;;;;;;;3.03;1.75;;;13.80;99.90;;;;;;5010768;28;20033;-85
2022/06/01 02:08:46;;;;;;;4.82;1.83;;;13.80;99.90;;;;;;5011668;28;20135;-85
2022/06/01 02:14:05;;;;;;;1.33;0.90;;;13.80;99.90;;;;;;5023415;28;20109;-86
2022/06/01 02:16:36;;;;;;;1.75;1.15;;;13.70;99.90;;;;;;5014174;28;20025;-85
2022/06/01 02:19:06;;;;;;;1.45;1.33;;;13.70;99.90;;;;;;5013957;28;20031;-85
2022/06/01 02:21:32;;;;;;;1.60;1.20;;;13.70;99.90;;;;;;5015402;28;20025;-86
2022/06/01 02:23:59;;;;;;;1.30;1.10;;;13.70;99.90;;;;;;5019775;28;20472;-85
2022/06/01 02:26:28;;;;;;;1.73;1.25;;;13.70;99.90;;;;;;5010674;28;20041;-85
2022/06/01 02:29:06;;;;;;;1.20;0.85;;;13.70;99.90;;;;;;5020228;28;20040;-84
2022/06/01 02:31:34;;;;;;;1.05;0.98;;;13.60;99.90;;;;;;5010518;28;20084;-86
2022/06/01 02:34:01;;;;;;;1.98;1.45;;;13.60;99.90;;;;;;5010148;28;20029;-86
2022/06/01 02:36:27;;;;;;;1.25;1.10;;;13.50;99.90;;;;;;5013655;28;20080;-85
2022/06/01 02:38:57;;;;;;;1.73;1.55;;;13.60;99.90;;;;;;5017671;28;20025;-85
2022/06/01 02:44:07;;;;;;;3.00;0.88;;;13.60;99.90;;;;;;5005446;28;20040;-85
2022/06/01 02:46:32;;;;;;;1.80;1.30;;;13.40;99.90;;;;;;5014405;28;20479;-85
2022/06/01 02:49:00;;;;;;;2.17;1.10;;;13.40;99.90;;;;;;5012430;28;20455;-85
2022/06/01 02:51:26;;;;;;;2.42;0.90;;;13.50;99.90;;;;;;5013122;28;20026;-85
2022/06/01 02:53:52;;;;;;;1.70;1.15;;;13.60;99.90;;;;;;5012591;28;20110;-86
2022/06/01 02:56:18;;;;;;;1.27;1.17;;;13.60;99.90;;;;;;5011945;28;20538;-85
2022/06/01 02:58:44;;;;;;;2.45;1.33;;;13.60;99.90;;;;;;5014198;28;20025;-85
2022/06/01 03:01:09;;;;;;;2.47;1.55;;;13.60;99.90;;;;;;5012545;28;20018;-86
2022/06/01 03:03:35;;;;;;;3.00;1.25;;;13.60;99.90;;;;;;5012674;28;20068;-85
2022/06/01 03:06:01;;;;;;;1.52;1.10;;;13.60;99.90;;;;;;5015106;28;20441;-85
2022/06/01 03:08:27;;;;;;;2.15;1.10;;;13.70;99.90;;;;;;5012081;28;20034;-86
2022/06/01 03:11:02;;;;;;;1.30;1.17;;;13.70;99.90;;;;;;5091693;27;20110;-86
2022/06/01 03:13:28;;;;;;;1.35;1.02;;;13.60;99.90;;;;;;5082190;28;20111;-87
2022/06/01 03:15:54;;;;;;;1.45;0.98;;;13.60;99.90;;;;;;5081091;28;20032;-87
2022/06/01 03:18:20;;;;;;;2.08;1.50;;;13.60;99.90;;;;;;5083293;28;20118;-87
2022/06/01 03:20:46;;;;;;;2.50;1.23;;;13.50;99.90;;;;;;5080972;28;20036;-87
2022/06/01 03:23:11;;;;;;;1.98;1.15;;;13.50;99.90;;;;;;5081298;28;20111;-87
2022/06/01 03:25:37;;;;;;;1.27;1.17;;;13.50;99.90;;;;;;5080530;28;20489;-87
2022/06/01 03:28:05;;;;;;;1.73;1.00;;;13.50;99.90;;;;;;5080378;28;20036;-87
2022/06/01 03:30:32;;;;;;;2.15;1.17;;;13.40;99.90;;;;;;5078160;28;20518;-87
2022/06/01 03:32:57;;;;;;;3.10;0.88;;;13.40;99.90;;;;;;5076546;28;20032;-87
2022/06/01 03:35:26;;;;;;;1.13;1.08;;;13.50;99.90;;;;;;5081019;28;20390;-87
2022/06/01 03:37:52;;;;;;;1.73;1.17;;;13.40;99.90;;;;;;5080905;28;20036;-87
2022/06/01 03:40:20;;;;;;;1.17;1.02;;;13.50;99.90;;;;;;5078588;28;20062;-87
2022/06/01 03:42:45;;;;;;;1.73;1.10;;;13.50;99.90;;;;;;5079146;28;20454;-87
2022/06/01 03:47:55;;;;;;;1.00;0.90;;;13.40;99.90;;;;;;5076964;28;20433;-87
2022/06/01 03:50:23;;;;;;;1.17;0.90;;;13.40;99.90;;;;;;5076020;28;20245;-88
2022/06/01 03:52:49;;;;;;;1.85;1.27;;;13.40;99.90;;;;;;5072636;28;20028;-87
2022/06/01 03:55:15;;;;;;;1.55;1.20;;;13.40;99.90;;;;;;5066902;28;20529;-88
2022/06/01 03:57:42;;;;;;;2.78;1.33;;;13.50;99.90;;;;;;5073419;28;20097;-88
2022/06/01 04:00:13;;;;;;;0.85;0.68;;;13.50;99.90;;;;;;5071198;28;20024;-87
2022/06/01 04:02:40;;;;;;;1.02;1.02;;;13.50;99.90;;;;;;5064127;28;20032;-86
2022/06/01 04:05:06;;;;;;;1.10;0.95;;;13.60;99.90;;;;;;5063904;28;20127;-86
2022/06/01 04:07:32;;;;;;;1.30;1.10;;;13.60;99.90;;;;;;5069440;28;20540;-87
2022/06/01 04:09:57;;;;;;;1.88;1.58;;;13.50;99.90;;;;;;5081734;28;20040;-87
2022/06/01 04:12:23;;;;;;;0.75;0.75;;;13.50;99.90;;;;;;5090458;28;20132;-87
2022/06/01 04:14:49;;;;;;;1.58;1.10;;;13.50;99.90;;;;;;5089222;28;20044;-86
2022/06/01 04:17:14;;;;;;;1.17;1.08;;;13.40;99.90;;;;;;5085166;28;20034;-87
2022/06/01 04:20:01;;;;;;;2.00;1.20;;;13.30;99.90;;;;;;5094015;28;20102;-86
2022/06/01 04:22:46;;;;;;;4.57;1.90;;;13.20;99.90;;;;;;5072920;28;20098;-87
2022/06/01 04:25:22;;;;;;;0.73;0.73;;;13.20;99.90;;;;;;5075403;28;20032;-89
2022/06/01 04:27:48;;;;;;;1.35;1.15;;;13.30;99.90;;;;;;5074697;28;20028;-86
2022/06/01 04:30:16;;;;;;;1.33;1.00;;;13.20;99.90;;;;;;5070433;28;20035;-87
2022/06/01 04:32:44;;;;;;;2.70;1.38;;;13.10;99.90;;;;;;5073898;28;20521;-87
2022/06/01 04:35:10;;;;;;;1.08;0.90;;;13.00;99.90;;;;;;5081013;28;20115;-86
2022/06/01 04:37:36;;;;;;;1.65;1.10;;;13.00;99.90;;;;;;5069013;28;20028;-86
2022/06/01 04:40:03;;;;;;;1.25;1.05;;;13.00;99.90;;;;;;5073946;28;20041;-86
2022/06/01 04:42:29;;;;;;;2.00;1.00;;;13.00;99.90;;;;;;5070470;28;20024;-86
2022/06/01 04:44:55;;;;;;;3.40;0.82;;;13.00;99.90;;;;;;5070482;28;20033;-86
2022/06/01 04:47:20;;;;;;;4.38;1.25;;;13.00;99.90;;;;;;5072406;28;20070;-86
2022/06/01 04:49:46;;;;;;;1.85;1.10;;;13.00;99.90;;;;;;5076151;28;20074;-86
2022/06/01 04:52:12;;;;;;;0.95;0.95;;;13.00;99.90;;;;;;5069750;28;20033;-86
2022/06/01 04:54:38;;;;;;;1.30;1.20;;;13.00;99.90;;;;;;5074949;28;20119;-86
2022/06/01 04:57:04;;;;;;;1.88;1.17;;;13.00;99.90;;;;;;5075092;28;20028;-87
2022/06/01 04:59:30;;;;;;;1.27;1.20;;;13.10;99.90;;;;;;5070305;28;20028;-87
2022/06/01 05:01:56;;;;;;;1.20;1.10;;;13.10;99.90;;;;;;5068807;28;20384;-86
2022/06/01 05:04:21;;;;;;;2.67;0.90;;;13.10;99.90;;;;;;5083145;28;20117;-87
2022/06/01 05:06:52;;;;;;;2.55;1.10;;;13.20;99.90;;;;;;5073783;28;20044;-85
2022/06/01 05:09:29;;;;;;;1.30;1.02;;;13.30;99.90;;;;;;5078643;28;20127;-88
2022/06/01 05:11:54;;;;;;;2.00;1.17;;;13.30;99.90;;;;;;5074465;28;20036;-86
2022/06/01 05:14:20;;;;;;;1.98;1.17;;;13.30;99.90;;;;;;5060426;28;20471;-86
2022/06/01 05:16:46;;;;;;;1.45;0.93;;;13.40;99.90;;;;;;5074353;28;20024;-87
2022/06/01 05:19:11;;;;;;;1.98;1.17;;;13.60;99.90;;;;;;5077746;28;20426;-87
2022/06/01 05:21:39;;;;;;;1.60;1.25;;;13.90;99.90;;;;;;5073916;28;20021;-86
2022/06/01 05:24:06;;;;;;;1.73;0.90;;;14.00;99.90;;;;;;5080379;28;20407;-85
2022/06/01 05:26:32;;;;;;;1.45;1.35;;;13.90;99.90;;;;;;5079479;28;20044;-87
2022/06/01 05:28:58;;;;;;;2.65;1.20;;;13.80;99.90;;;;;;5070726;28;20097;-84
2022/06/01 05:31:23;;;;;;;1.30;1.00;;;13.70;99.90;;;;;;5070592;28;20020;-87
2022/06/01 05:33:49;;;;;;;1.33;1.02;;;13.70;99.90;;;;;;5080501;28;20486;-85
2022/06/01 05:36:17;;;;;;;1.40;1.02;;;13.70;99.90;;;;;;5076945;28;20024;-86
2022/06/01 05:38:46;;;;;;;1.30;1.17;;;13.60;99.90;;;;;;5075514;28;20023;-87
2022/06/01 05:41:23;;;;;;;1.73;1.63;;;13.60;99.90;;;;;;5073324;28;20541;-86
2022/06/01 05:44:22;;;;;;;;;;;;;;;;;;;;;
2022/06/01 05:46:55;;;;;;;1.20;0.90;;;13.90;99.90;;;;;;5068276;28;20490;-87
2022/06/01 05:49:21;;;;;;;2.35;2.03;;;14.00;99.90;;;;;;5073860;28;20035;-80
2022/06/01 05:51:46;;;;;;;1.73;1.27;;;14.40;99.90;;;;;;5074373;28;20024;-84
2022/06/01 05:54:12;;;;;;;2.15;1.35;;;14.50;99.90;;;;;;5080357;28;20099;-82
2022/06/01 05:56:37;;;;;;;1.80;1.33;;;14.40;99.90;;;;;;5069641;28;20016;-82
2022/06/01 05:59:03;;;;;;;3.97;1.52;;;14.30;99.90;;;;;;5073756;28;20457;-81
2022/06/01 06:01:29;;;;;;;4.90;1.25;;;14.30;99.90;;;;;;5072623;28;20089;-81
2022/06/01 06:03:54;;;;;;;2.47;1.45;;;14.30;99.90;;;;;;5077379;28;20028;-78
2022/06/01 06:06:22;;;;;;;1.70;1.38;;;14.30;99.90;;;;;;5073163;28;20415;-82
2022/06/01 06:08:55;;;;;;;1.85;1.25;;;14.40;99.90;;;;;;5074722;28;20062;-87
2022/06/01 06:11:23;;;;;;;4.10;1.45;;;14.50;99.90;;;;;;5068513;28;20024;-85
2022/06/01 06:13:48;;;;;;;0.95;0.90;;;14.50;99.90;;;;;;5070284;28;20028;-81
2022/06/01 06:16:15;;;;;;;1.25;1.10;;;14.50;99.90;;;;;;5073448;28;20429;-82
2022/06/01 06:18:41;;;;;;;1.20;1.00;;;14.40;99.90;;;;;;5073302;28;20016;-83
2022/06/01 06:21:07;;;;;;;1.58;1.35;;;14.50;99.90;;;;;;5072735;28;20073;-81
2022/06/01 06:23:33;;;;;;;0.70;0.70;;;14.60;99.90;;;;;;5081587;28;20039;-80
2022/06/01 06:25:58;;;;;;;1.38;0.90;;;14.70;99.90;;;;;;5082168;28;20123;-81
2022/06/01 06:28:24;;;;;;;1.17;1.08;;;14.80;99.90;;;;;;5087616;28;20111;-80
2022/06/01 06:30:51;;;;;;;1.17;0.88;;;14.80;99.90;;;;;;5084550;28;20023;-80
2022/06/01 06:33:16;;;;;;;2.92;1.33;;;14.90;99.90;;;;;;5082247;28;20020;-80
2022/06/01 06:35:42;;;;;;;1.33;0.88;;;15.00;99.90;;;;;;5083170;28;20077;-80
2022/06/01 06:38:08;;;;;;;0.90;0.90;;;15.00;99.90;;;;;;5081863;28;20028;-79
2022/06/01 06:40:33;;;;;;;0.90;0.80;;;15.10;99.90;;;;;;5080190;28;20150;-76
2022/06/01 06:42:59;;;;;;;1.55;0.88;;;15.10;99.90;;;;;;5083385;28;20062;-77
2022/06/01 06:45:25;;;;;;;0.88;0.70;;;15.20;99.90;;;;;;5081198;28;20482;-78
2022/06/01 06:47:50;;;;;;;1.23;0.80;;;15.30;99.90;;;;;;5082508;28;20064;-79
2022/06/01 06:50:18;;;;;;;1.40;1.20;;;15.40;99.90;;;;;;5080485;28;20028;-81
2022/06/01 06:52:44;;;;;;;2.05;1.15;;;15.30;99.90;;;;;;5076057;28;20578;-79
2022/06/01 06:55:10;;;;;;;1.75;0.90;;;15.50;99.90;;;;;;5084937;28;20024;-81
2022/06/01 06:57:36;;;;;;;1.42;0.90;;;15.40;99.90;;;;;;5081139;28;20028;-85
2022/06/01 07:00:05;;;;;;;1.38;1.05;;;15.20;99.90;;;;;;5078479;28;20114;-81
2022/06/01 07:02:31;;;;;;;1.58;1.00;;;15.10;99.90;;;;;;5068894;28;20028;-80
2022/06/01 07:04:56;;;;;;;1.45;0.93;;;15.10;99.90;;;;;;5075080;28;20559;-82
2022/06/01 07:07:22;;;;;;;2.40;1.52;;;15.30;99.90;;;;;;5074296;28;20024;-79
2022/06/01 07:09:48;;;;;;;1.15;0.77;;;15.50;99.90;;;;;;5073859;28;20497;-76
2022/06/01 07:12:13;;;;;;;0.98;0.98;;;15.80;99.90;;;;;;5071523;28;20410;-76
2022/06/01 07:14:39;;;;;;;1.33;1.00;;;16.00;99.90;;;;;;5069817;28;20074;-76
2022/06/01 07:17:05;;;;;;;1.80;1.25;;;16.20;99.70;;;;;;5070025;28;20097;-77
2022/06/01 07:19:31;;;;;;;1.15;1.05;;;16.50;98.90;;;;;;5069791;28;20034;-76
2022/06/01 07:21:56;;;;;;;1.58;1.10;;;16.30;97.20;;;;;;5082995;28;20111;-75
2022/06/01 07:24:22;;;;;;;1.73;1.25;;;16.30;96.80;;;;;;5065486;28;20273;-76
2022/06/01 07:26:49;;;;;;;1.98;0.98;;;16.60;96.00;;;;;;5071829;28;20040;-76
2022/06/01 07:29:16;;;;;;;0.80;0.80;;;16.80;96.00;;;;;;5087892;28;20025;-75
2022/06/01 07:31:42;;;;;;;0.90;0.90;;;17.20;95.60;;;;;;5073009;28;20020;-77
2022/06/01 07:34:08;;;;;;;0.70;0.70;;;17.50;94.60;;;;;;5074218;28;20102;-74
2022/06/01 07:36:34;;;;;;;2.08;1.20;;;17.60;93.50;;;;;;5073945;28;20059;-75
2022/06/01 07:44:40;;;;;;;0.60;0.60;;;17.10;95.00;;;;;;5067871;28;20093;-75
2022/06/01 07:47:08;;;;;;;2.05;1.27;;;17.00;95.30;;;;;;5071673;28;20026;-76
2022/06/01 07:49:33;;;;;;;1.92;1.08;;;16.90;93.30;;;;;;5072113;28;20028;-75
2022/06/01 07:51:59;;;;;;;3.25;1.30;;;16.70;93.10;;;;;;5067515;28;20024;-75
2022/06/01 07:54:25;;;;;;;2.03;1.00;;;16.70;93.90;;;;;;5073845;28;20060;-75
2022/06/01 07:56:50;;;;;;;1.00;0.73;;;16.80;95.80;;;;;;5076785;28;20056;-76
2022/06/01 07:59:17;;;;;;;2.30;1.17;;;16.70;94.80;;;;;;5076436;28;20024;-77
2022/06/01 08:01:43;;;;;;;1.30;0.98;;;16.90;94.60;;;;;;5076653;28;20028;-77
2022/06/01 08:04:09;;;;;;;0.80;0.80;;;16.80;95.60;;;;;;5073988;28;20074;-76
2022/06/01 08:06:36;;;;;;;1.27;1.15;;;16.70;94.70;;;;;;5081766;28;20035;-77
2022/06/01 08:09:03;;;;;;;1.17;0.93;;;16.70;95.70;;;;;;5083530;28;20127;-77
2022/06/01 08:14:14;;;;;;;2.42;1.20;;;17.20;95.30;;;;;;5089709;28;20089;-79
2022/06/01 08:16:41;;;;;;;4.05;2.13;;;17.20;93.70;;;;;;5058729;28;20490;-77
2022/06/01 08:19:07;;;;;;;1.10;0.80;;;17.30;93.20;;;;;;5090181;28;20522;-80
2022/06/01 08:21:33;;;;;;;2.13;1.25;;;17.40;92.60;;;;;;5074229;28;20116;-79
2022/06/01 08:23:59;;;;;;;1.27;1.15;;;17.50;93.10;;;;;;5072031;28;20032;-80
2022/06/01 08:26:25;;;;;;;1.60;1.33;;;17.60;92.50;;;;;;5062416;28;20039;-77
2022/06/01 08:28:50;;;;;;;2.13;1.50;;;17.70;92.40;;;;;;5080462;28;20039;-79
2022/06/01 08:31:16;;;;;;;1.40;0.90;;;17.70;90.90;;;;;;5085057;28;20478;-79
2022/06/01 08:33:41;;;;;;;6.90;1.63;;;17.70;91.20;;;;;;5084986;28;20062;-80
2022/06/01 08:36:07;;;;;;;2.45;1.20;;;17.60;91.20;;;;;;5077687;28;20020;-80
2022/06/01 08:38:33;;;;;;;2.13;1.13;;;17.50;91.80;;;;;;5071986;28;20056;-78
2022/06/01 08:41:04;;;;;;;2.83;1.52;;;17.20;91.00;;;;;;5075943;28;21023;-83
2022/06/01 08:43:55;;;;;;;1.15;0.98;;;17.30;92.60;;;;;;5070838;28;20029;-78
2022/06/01 08:46:34;;;;;;;1.67;0.90;;;17.20;91.50;;;;;;5069531;28;20036;-78
2022/06/01 08:49:04;;;;;;;7.18;1.92;;;17.10;92.20;;;;;;5079995;28;20490;-79
2022/06/01 08:51:31;;;;;;;2.58;1.05;;;17.20;91.50;;;;;;5068111;28;20040;-79
2022/06/01 08:54:00;;;;;;;1.27;0.95;;;17.30;91.20;;;;;;5070019;28;20070;-78
2022/06/01 08:56:43;;;;;;;1.33;0.88;;;17.40;90.80;;;;;;5072467;28;20023;-78
2022/06/01 08:59:20;;;;;;;1.08;0.98;;;17.50;91.00;;;;;;5070285;28;20032;-79
2022/06/01 09:02:17;;;;;;;1.17;0.80;;;17.50;90.60;;;;;;5088241;28;20492;-79
2022/06/01 09:04:52;;;;;;;0.90;0.80;;;17.40;90.30;;;;;;5077745;28;20033;-79
2022/06/01 09:07:26;;;;;;;1.50;0.88;;;17.50;92.40;;;;;;5070790;28;20028;-78
2022/06/01 09:10:24;;;;;;;2.83;1.33;;;17.40;90.90;;;;;;5072751;28;20040;-79
2022/06/01 09:13:00;;;;;;;0.88;0.75;;;17.50;90.50;;;;;;5070752;28;20074;-77
2022/06/01 09:15:27;;;;;;;1.42;0.80;;;17.60;88.00;;;;;;5072200;28;20056;-77
2022/06/01 09:17:54;;;;;;;3.42;1.02;;;17.80;89.90;;;;;;5080252;28;20036;-81
2022/06/01 09:23:11;;;;;;;1.90;1.10;;;18.30;90.10;;;;;;5071677;28;20083;-81
2022/06/01 09:25:37;;;;;;;6.38;2.03;;;18.40;84.90;;;;;;5086612;28;20756;-81
2022/06/01 09:28:20;;;;;;;1.40;1.30;;;18.00;85.10;;;;;;5086152;28;20028;-79
2022/06/01 09:30:59;;;;;;;1.13;1.05;;;17.80;86.00;;;;;;5070619;28;20036;-78
2022/06/01 09:33:31;;;;;;;6.13;2.00;;;17.70;88.70;;;;;;5071747;28;20055;-79
2022/06/01 09:36:09;;;;;;;3.92;1.27;;;17.70;85.10;;;;;;5089599;28;20051;-79
2022/06/01 09:38:51;;;;;;;1.38;0.90;;;17.70;86.30;;;;;;5088742;28;20020;-79
2022/06/01 09:41:19;;;;;;;0.65;0.60;;;17.60;81.50;;;;;;5091019;28;20016;-80
2022/06/01 09:43:57;;;;;;;1.20;0.93;;;17.70;79.80;;;;;;5081870;28;20020;-79
2022/06/01 09:46:28;;;;;;;2.95;0.90;;;17.60;77.10;;;;;;5069956;28;20052;-80
2022/06/01 09:48:53;;;;;;;;;;;17.60;79.70;;;;;;5070529;28;20287;-79
2022/06/01 09:51:23;;;;;;;3.40;1.27;;;17.90;75.70;;;;;;5071183;28;20358;-81
2022/06/01 09:54:07;;;;;;;1.45;0.93;;;18.00;76.80;;;;;;5081632;28;20055;-81
2022/06/01 09:56:40;;;;;;;2.15;0.85;;;18.10;75.90;;;;;;5081126;28;20032;-80
2022/06/01 10:07:30;;;;;;;1.20;0.70;;;19.00;71.10;;;;;;5069423;28;20027;-79
2022/06/01 10:10:02;;;;;;;0.75;0.75;;;18.90;67.90;;;;;;5075363;28;20036;-79
2022/06/01 10:12:44;;;;;;;1.40;0.90;;;18.50;66.60;;;;;;5089487;28;20032;-79
2022/06/01 10:15:21;;;;;;;2.55;0.95;;;18.40;66.70;;;;;;5089784;28;20028;-79
2022/06/01 10:17:53;;;;;;;1.08;0.93;;;18.60;67.00;;;;;;5085753;28;20020;-79
2022/06/01 10:20:28;;;;;;;1.08;0.80;;;18.50;64.70;;;;;;5076850;28;20068;-82
2022/06/01 10:23:03;;;;;;;1.75;0.95;;;18.90;66.40;;;;;;5087898;28;20038;-80
2022/06/01 10:25:38;;;;;;;1.35;1.13;;;19.30;65.00;;;;;;5090172;28;20081;-80
2022/06/01 10:28:10;;;;;;;1.83;0.70;;;19.50;64.30;;;;;;5088279;28;20115;-80
2022/06/01 10:30:38;;;;;;;0.68;0.68;;;19.70;63.70;;;;;;5087806;28;20028;-80
2022/06/01 10:33:12;;;;;;;3.60;1.30;;;19.60;62.60;;;;;;5090081;28;20027;-80
2022/06/01 10:35:52;;;;;;;2.42;1.90;;;19.50;62.80;;;;;;5071426;28;20181;-81
2022/06/01 10:38:24;;;;;;;2.25;1.00;;;19.10;62.40;;;;;;5073456;28;20468;-79
2022/06/01 10:41:10;;;;;;;2.53;1.35;;;19.00;66.10;;;;;;5089580;28;20119;-79
2022/06/01 10:43:57;;;;;;;1.92;1.38;;;19.20;63.80;;;;;;5085190;28;20558;-81
2022/06/01 10:46:49;;;;;;;0.80;0.75;;;19.50;66.30;;;;;;5069655;28;20402;-80
2022/06/01 10:49:40;;;;;;;3.08;2.60;;;19.70;62.60;;;;;;5075811;28;20037;-81
2022/06/01 10:52:31;;;;;;;1.03;0.90;;;19.40;64.50;;;;;;5068604;28;20028;-82
2022/06/01 10:55:06;;;;;;;0.60;0.60;;;19.10;64.90;;;;;;5069578;28;20046;-83
2022/06/01 10:57:36;;;;;;;0.80;0.57;;;18.70;67.30;;;;;;5076570;28;20086;-83
2022/06/01 11:00:05;;;;;;;0.47;0.47;;;18.60;68.60;;;;;;5089325;28;20036;-80
2022/06/01 11:02:56;;;;;;;1.02;0.70;;;18.80;67.60;;;;;;5089562;28;20127;-81
2022/06/01 11:05:32;;;;;;;0.60;0.60;;;19.30;66.00;;;;;;5068599;28;20072;-82
2022/06/01 11:08:25;;;;;;;1.45;0.95;;;19.80;65.30;;;;;;5072269;28;20339;-80
2022/06/01 11:11:04;;;;;;;2.03;0.95;;;20.40;65.50;;;;;;5088555;28;20445;-80
2022/06/01 11:13:38;;;;;;;0.75;0.68;;;20.50;59.80;;;;;;5089433;28;20034;-81
2022/06/01 11:17:03;;;;;;;0.80;0.75;;;20.40;58.30;;;;;;5079101;28;20044;-80
2022/06/01 11:19:52;;;;;;;0.95;0.70;;;20.90;59.00;;;;;;4974519;28;20077;-80
2022/06/01 11:22:47;;;;;;;1.08;0.77;;;21.40;58.50;;;;;;4978434;28;20520;-84
2022/06/01 11:25:33;;;;;;;2.05;0.98;;;21.50;56.80;;;;;;5066080;28;20036;-83
2022/06/01 11:28:22;;;;;;;0.80;0.80;;;21.30;55.50;;;;;;5069546;28;20020;-82
2022/06/01 11:30:59;;;;;;;0.70;0.70;;;20.70;57.50;;;;;;5070087;28;20060;-81
2022/06/01 11:33:54;;;;;;;1.13;0.90;;;20.10;58.00;;;;;;5075586;28;20502;-82
2022/06/01 11:36:50;;;;;;;1.45;1.30;;;20.20;58.10;;;;;;5072301;28;20070;-81
2022/06/01 11:39:36;;;;;;;3.17;1.58;;;20.80;58.00;;;;;;5071899;28;20032;-82
2022/06/01 11:42:23;;;;;;;1.85;0.90;;;21.20;56.40;;;;;;5072597;28;20434;-81
2022/06/01 11:44:53;;;;;;;2.63;1.17;;;20.60;54.60;;;;;;5082038;28;20035;-84
2022/06/01 11:47:20;;;;;;;1.23;1.13;;;19.80;56.80;;;;;;5091031;28;20095;-81
2022/06/01 11:50:01;;;;;;;1.40;0.82;;;19.50;58.60;;;;;;5092565;28;20039;-82
2022/06/01 11:52:41;;;;;;;5.68;1.63;;;19.70;59.60;;;;;;5092338;28;20066;-82
2022/06/01 11:55:12;;;;;;;1.60;1.40;;;20.60;58.60;;;;;;5087855;28;20037;-80
2022/06/01 11:57:45;;;;;;;4.43;2.10;;;20.80;57.20;;;;;;5071718;28;20538;-82
2022/06/01 12:00:11;;;;;;;0.50;0.50;;;20.70;56.90;;;;;;5072268;28;20604;-82
2022/06/01 12:02:47;;;;;;;0.80;0.73;;;21.00;55.80;;;;;;5071600;28;20482;-81
2022/06/01 12:05:20;;;;;;;0.52;0.52;;;20.90;56.70;;;;;;5082476;28;20056;-84
2022/06/01 12:07:53;;;;;;;0.50;0.50;;;20.30;58.40;;;;;;5092214;28;20035;-82
2022/06/01 12:10:28;;;;;;;0.63;0.55;;;20.20;59.20;;;;;;5087792;28;20074;-82
2022/06/01 12:13:21;;;;;;;1.08;0.70;;;20.70;57.80;;;;;;5076607;28;20597;-82
2022/06/01 12:16:19;;;;;;;1.00;0.80;;;20.70;58.40;;;;;;5087637;28;20074;-85
2022/06/01 12:19:11;;;;;;;0.50;0.50;;;21.80;57.10;;;;;;5079246;28;20028;-81
2022/06/01 12:21:42;;;;;;;0.90;0.80;;;22.60;55.10;;;;;;5071819;28;20025;-81
2022/06/01 12:30:08;;;;;;;0.65;0.65;;;21.60;56.80;;;;;;5074337;28;20458;-81
2022/06/01 12:33:07;;;;;;;0.95;0.70;;;20.90;57.10;;;;;;5071836;28;20363;-81
2022/06/01 12:35:41;;;;;;;0.65;0.60;;;20.10;57.80;;;;;;5071308;28;20028;-82
2022/06/01 12:38:09;;;;;;;0.63;0.63;;;19.50;59.70;;;;;;5071851;28;20033;-82
2022/06/01 12:40:36;;;;;;;3.03;1.10;;;19.30;61.20;;;;;;5073481;28;20078;-81
2022/06/01 12:43:14;;;;;;;0.98;0.80;;;19.10;62.10;;;;;;5070443;28;20394;-81
2022/06/01 12:45:42;;;;;;;0.50;0.50;;;18.90;63.20;;;;;;5070256;28;20035;-82
2022/06/01 12:48:19;;;;;;;0.60;0.52;;;18.70;65.30;;;;;;5070850;28;20020;-82
2022/06/01 12:51:06;;;;;;;1.15;0.70;;;18.50;66.90;;;;;;5070709;28;20037;-82
2022/06/01 12:53:47;;;;;;;0.70;0.30;;;18.10;67.00;;;;;;5069517;28;20040;-77
2022/06/01 12:56:22;;;;;;;0.75;0.75;;;15.70;99.90;;;;;;5084722;28;20078;-77
2022/06/01 12:58:50;;;;;;;0.68;0.68;;;13.80;99.90;;;;;;5089998;28;20020;-76
2022/06/01 13:01:19;;;;;;;0.50;0.50;;;13.20;99.90;;;;;;5069220;28;20052;-76
2022/06/01 13:03:50;;;;;;;1.02;0.50;;;14.20;99.90;;;;;;5071107;28;20052;-76
2022/06/01 13:06:22;;;;;;;1.05;0.85;;;14.70;99.90;;;;;;5070993;28;20137;-78
2022/06/01 13:09:00;;;;;;;1.48;0.85;;;14.50;99.90;;;;;;5070813;28;20033;-78
2022/06/01 13:11:32;;;;;;;1.23;0.60;;;14.60;99.90;;;;;;5089330;28;20074;-77
2022/06/01 13:14:00;;;;;;;2.45;0.50;;;14.50;99.90;;;;;;5089995;28;20047;-79
2022/06/01 13:16:36;;;;;;;0.43;0.43;;;14.70;99.90;;;;;;5090592;28;20059;-79
2022/06/01 13:19:34;;;;;;;0.68;0.68;;;14.70;99.90;;;;;;5074843;28;20153;-79
2022/06/01 13:22:15;;;;;;;1.13;0.60;;;14.80;99.90;;;;;;5090266;28;20039;-79
2022/06/01 13:24:55;;;;;;;0.57;0.50;;;14.90;99.90;;;;;;5090572;28;20111;-78
2022/06/01 13:27:20;;;;;;;0.50;0.50;;;15.10;99.90;;;;;;5089307;28;20016;-79
2022/06/01 13:29:49;;;;;;;1.15;0.63;;;15.30;99.90;;;;;;5090623;28;20039;-79
2022/06/01 13:32:17;;;;;;;1.38;0.90;;;15.50;99.90;;;;;;5088112;28;20032;-80
2022/06/01 13:34:48;;;;;;;1.10;1.00;;;17.30;99.90;;;;;;5070227;28;20028;-79
2022/06/01 13:37:16;;;;;;;1.30;1.05;;;20.00;99.90;;;;;;5071202;28;20021;-80
2022/06/01 13:39:56;;;;;;;1.10;1.00;;;19.00;99.90;;;;;;5090574;28;20071;-79
2022/06/01 13:42:22;;;;;;;0.82;0.70;;;18.10;99.90;;;;;;5072053;28;20446;-80
2022/06/01 13:45:04;;;;;;;1.02;0.95;;;17.30;99.90;;;;;;5090423;28;20036;-80
2022/06/01 13:47:44;;;;;;;0.93;0.93;;;16.60;99.90;;;;;;5071940;28;20029;-80